Aktuální stav
Mostly Scattered
Clouds



Tlak
1008.81 (hPa) - 29.79 (inHG)
Viditelnost

9.7 (km) - 6.0 (míle)
   Teplota
10  °C
50°F
9  °C
Rosný bod
94  %
 Vlhkost
   Rychlost větru
0  m/s
0  mph
0  km/h
0  kts
   Směr větru
Calm
Sever
   Leťiště
LKLN
Location Plzeň-Líně Airport 36 km (22.37 mi)
Metar :LKLN 150300Z AUTO 00000KT 9999 SCT069 10/09 Q1009
Sat 15th June 04:00 am